createdAt,value
2022-10-22T00:00:01.572Z,78.41
2022-10-22T00:02:28.033Z,78.46
2022-10-22T00:04:56.734Z,78.12
2022-10-22T00:07:23.391Z,78.42
2022-10-22T00:09:49.937Z,78.87
2022-10-22T00:12:16.628Z,79.26
2022-10-22T00:14:43.403Z,79.31
2022-10-22T00:17:11.469Z,79.25
2022-10-22T00:19:38.624Z,79.31
2022-10-22T00:22:05.710Z,79.78
2022-10-22T00:24:33.449Z,80.03
2022-10-22T00:26:59.970Z,79.68
2022-10-22T00:29:26.475Z,80.25
2022-10-22T00:31:53.109Z,80.19
2022-10-22T00:34:21.262Z,79.83
2022-10-22T00:36:48.478Z,80.37
2022-10-22T00:39:17.030Z,80.31
2022-10-22T00:41:45.438Z,80.15
2022-10-22T00:44:49.279Z,80.20
2022-10-22T00:47:17.559Z,79.91
2022-10-22T00:49:46.536Z,80.26
2022-10-22T00:52:13.622Z,80.19
2022-10-22T00:54:41.237Z,80.25
2022-10-22T00:57:07.740Z,80.16
2022-10-22T00:59:34.450Z,79.78
2022-10-22T01:02:01.052Z,79.63
2022-10-22T01:04:27.371Z,79.77
2022-10-22T01:06:53.915Z,79.74
2022-10-22T01:09:23.325Z,80.39
2022-10-22T01:11:53.478Z,80.07
2022-10-22T01:14:28.771Z,80.16
2022-10-22T01:17:08.608Z,80.40
2022-10-22T01:19:43.933Z,79.75
2022-10-22T01:22:52.254Z,79.49
2022-10-22T01:25:35.274Z,80.11
2022-10-22T01:28:31.667Z,80.35
2022-10-22T01:31:01.276Z,80.17
2022-10-22T01:33:29.298Z,80.39
2022-10-22T01:35:57.386Z,80.25
2022-10-22T01:38:25.743Z,80.17
2022-10-22T01:40:52.235Z,79.74
2022-10-22T01:43:18.996Z,80.16
2022-10-22T01:45:52.276Z,80.65
2022-10-22T01:48:40.476Z,80.94
2022-10-22T01:51:27.993Z,80.82
2022-10-22T01:54:03.402Z,81.75
2022-10-22T01:57:07.128Z,81.50
2022-10-22T02:00:07.432Z,81.55
2022-10-22T02:02:42.243Z,81.69
2022-10-22T02:05:14.615Z,81.43
2022-10-22T02:07:49.118Z,81.15
2022-10-22T02:10:18.720Z,81.58
2022-10-22T02:12:50.236Z,81.50
2022-10-22T02:15:19.345Z,81.03
2022-10-22T02:17:47.116Z,81.12
2022-10-22T02:20:19.326Z,81.20
2022-10-22T02:22:46.850Z,81.29
2022-10-22T02:25:14.375Z,81.68
2022-10-22T02:27:51.823Z,81.62
2022-10-22T02:30:22.346Z,81.59
2022-10-22T02:32:53.835Z,80.98
2022-10-22T02:35:23.152Z,81.40
2022-10-22T02:37:51.220Z,81.33
2022-10-22T02:40:18.471Z,81.25
2022-10-22T02:42:48.235Z,81.12
2022-10-22T02:45:15.163Z,81.21
2022-10-22T02:47:41.515Z,81.17
2022-10-22T02:50:10.289Z,81.25
2022-10-22T02:52:37.324Z,80.90
2022-10-22T02:55:05.011Z,80.80
2022-10-22T02:57:31.416Z,80.56
2022-10-22T02:59:57.822Z,80.91
2022-10-22T03:02:24.520Z,80.88
2022-10-22T03:04:50.834Z,80.90
2022-10-22T03:07:17.227Z,80.61
2022-10-22T03:09:43.564Z,80.83
2022-10-22T03:12:09.876Z,80.86
2022-10-22T03:14:36.165Z,81.61
2022-10-22T03:17:02.634Z,81.32
2022-10-22T03:19:28.937Z,81.50
2022-10-22T03:22:08.487Z,81.26
2022-10-22T03:24:39.780Z,80.78
2022-10-22T03:27:06.406Z,81.27
2022-10-22T03:29:35.983Z,81.32
2022-10-22T03:32:02.295Z,81.54
2022-10-22T03:34:28.690Z,81.58
2022-10-22T03:36:57.396Z,81.12
2022-10-22T03:39:23.823Z,80.96
2022-10-22T03:41:51.989Z,80.80
2022-10-22T03:44:18.758Z,80.74
2022-10-22T03:46:45.317Z,80.95
2022-10-22T03:49:11.878Z,81.45
2022-10-22T03:51:38.365Z,81.39
2022-10-22T03:54:05.102Z,81.18
2022-10-22T03:56:31.760Z,81.46
2022-10-22T03:58:59.323Z,81.62
2022-10-22T04:01:26.669Z,81.05
2022-10-22T04:03:53.497Z,81.07
2022-10-22T04:06:19.837Z,81.50
2022-10-22T04:08:46.323Z,81.54
2022-10-22T04:11:14.051Z,81.35
2022-10-22T04:13:40.940Z,80.46
2022-10-22T04:16:16.150Z,80.48
2022-10-22T04:18:43.647Z,79.75
2022-10-22T04:21:12.566Z,79.63
2022-10-22T04:23:39.223Z,80.15
2022-10-22T04:26:07.998Z,80.63
2022-10-22T04:28:35.140Z,80.52
2022-10-22T04:31:07.606Z,80.49
2022-10-22T04:33:33.912Z,80.25
2022-10-22T04:36:00.229Z,80.56
2022-10-22T04:38:26.523Z,80.33
2022-10-22T04:40:52.838Z,80.06
2022-10-22T04:43:19.224Z,79.90
2022-10-22T04:45:45.542Z,79.87
2022-10-22T04:48:11.925Z,79.76
2022-10-22T04:50:38.318Z,79.76
2022-10-22T04:53:04.756Z,79.31
2022-10-22T04:58:02.346Z,79.56
2022-10-22T05:00:28.671Z,79.90
2022-10-22T05:02:55.067Z,79.99
2022-10-22T05:05:21.402Z,79.67
2022-10-22T05:07:47.764Z,79.64
2022-10-22T05:10:14.138Z,80.30
2022-10-22T05:12:40.527Z,80.54
2022-10-22T05:15:07.575Z,81.52
2022-10-22T05:17:37.533Z,81.77
2022-10-22T05:20:05.315Z,83.43
2022-10-22T05:22:33.155Z,84.13
2022-10-22T05:24:59.455Z,85.99
2022-10-22T05:27:25.965Z,84.66
2022-10-22T05:29:52.693Z,84.75
2022-10-22T05:32:19.004Z,84.99
2022-10-22T05:34:45.341Z,85.12
2022-10-22T05:37:11.653Z,85.56
2022-10-22T05:39:40.188Z,85.75
2022-10-22T05:42:06.544Z,85.77
2022-10-22T05:44:32.989Z,85.54
2022-10-22T05:46:59.294Z,86.20
2022-10-22T05:49:25.593Z,86.08
2022-10-22T05:51:51.928Z,85.97
2022-10-22T05:54:20.738Z,86.41
2022-10-22T05:56:47.118Z,86.21
2022-10-22T05:59:13.508Z,85.86
2022-10-22T06:01:40.979Z,85.70
2022-10-22T06:04:10.555Z,85.75
2022-10-22T06:06:36.829Z,86.12
2022-10-22T06:09:23.770Z,86.20
2022-10-22T06:11:50.919Z,87.30
2022-10-22T06:14:18.521Z,86.04
2022-10-22T06:16:44.971Z,86.98
2022-10-22T06:19:12.945Z,86.15
2022-10-22T06:21:39.527Z,86.61
2022-10-22T06:24:06.310Z,85.92
2022-10-22T06:26:32.670Z,86.05
2022-10-22T06:28:59.446Z,86.14
2022-10-22T06:31:26.769Z,85.93
2022-10-22T06:33:53.335Z,85.97
2022-10-22T06:36:22.562Z,86.01
2022-10-22T06:38:53.380Z,86.04
2022-10-22T06:41:21.376Z,85.90
2022-10-22T06:43:49.992Z,85.33
2022-10-22T06:46:20.256Z,85.48
2022-10-22T06:48:59.271Z,85.70
2022-10-22T06:51:26.643Z,85.12
2022-10-22T06:53:53.797Z,84.97
2022-10-22T06:56:22.535Z,85.76
2022-10-22T06:58:49.955Z,85.75
2022-10-22T07:01:18.685Z,85.11
2022-10-22T07:03:45.766Z,85.46
2022-10-22T07:06:14.250Z,84.74
2022-10-22T07:08:41.641Z,84.95
2022-10-22T07:11:13.735Z,84.83
2022-10-22T07:13:40.328Z,84.68
2022-10-22T07:16:08.173Z,84.31
2022-10-22T07:18:35.705Z,84.24
2022-10-22T07:21:03.195Z,84.14
2022-10-22T07:23:30.526Z,84.29
2022-10-22T07:28:29.098Z,84.01
2022-10-22T07:30:55.449Z,83.30
2022-10-22T07:33:21.798Z,83.63
2022-10-22T07:35:48.202Z,84.07
2022-10-22T07:38:14.519Z,83.26
2022-10-22T07:40:40.829Z,82.57
2022-10-22T07:43:07.216Z,83.03
2022-10-22T07:45:33.777Z,82.30
2022-10-22T07:48:00.642Z,81.81
2022-10-22T07:50:26.981Z,82.01
2022-10-22T07:52:54.848Z,80.78
2022-10-22T07:55:23.737Z,81.26
2022-10-22T07:57:50.045Z,81.63
2022-10-22T08:00:17.837Z,81.98
2022-10-22T08:02:46.252Z,80.89
2022-10-22T08:05:13.375Z,80.70
2022-10-22T08:07:40.823Z,79.88
2022-10-22T08:10:08.077Z,78.61
2022-10-22T08:12:34.435Z,79.44
2022-10-22T08:15:00.861Z,79.18
2022-10-22T08:17:27.779Z,79.28
2022-10-22T08:19:54.241Z,79.38
2022-10-22T08:22:20.606Z,79.29
2022-10-22T08:24:46.903Z,80.49
2022-10-22T08:27:13.329Z,79.39
2022-10-22T08:29:40.201Z,78.67
2022-10-22T08:32:06.810Z,78.66
2022-10-22T08:34:33.430Z,78.51
2022-10-22T08:37:00.105Z,78.13
2022-10-22T08:39:26.639Z,77.41
2022-10-22T08:42:08.375Z,75.81
2022-10-22T08:44:48.259Z,76.70
2022-10-22T08:47:34.722Z,76.87
2022-10-22T08:50:02.305Z,77.42
2022-10-22T08:52:31.023Z,76.76
2022-10-22T08:55:00.112Z,77.14
2022-10-22T08:58:03.702Z,76.32
2022-10-22T09:00:46.052Z,76.90
2022-10-22T09:03:32.921Z,76.77
2022-10-22T09:06:05.938Z,77.28
2022-10-22T09:08:32.754Z,76.44
2022-10-22T09:11:06.901Z,75.96
2022-10-22T09:13:33.473Z,76.25
2022-10-22T09:16:11.157Z,76.87
2022-10-22T09:19:14.798Z,76.71
2022-10-22T09:21:50.806Z,76.59
2022-10-22T09:24:26.663Z,75.44
2022-10-22T09:26:57.633Z,74.40
2022-10-22T09:29:32.569Z,74.74
2022-10-22T09:31:59.411Z,74.29
2022-10-22T09:34:25.920Z,74.31
2022-10-22T09:37:01.487Z,74.70
2022-10-22T09:39:38.793Z,74.27
2022-10-22T09:42:07.022Z,74.59
2022-10-22T09:44:37.282Z,73.00
2022-10-22T09:47:32.654Z,72.07
2022-10-22T09:50:09.643Z,72.47
2022-10-22T09:52:36.323Z,70.98
2022-10-22T09:55:06.931Z,71.12
2022-10-22T09:57:37.892Z,72.04
2022-10-22T10:00:10.107Z,71.37
2022-10-22T10:02:40.488Z,71.74
2022-10-22T10:05:08.320Z,71.43
2022-10-22T10:07:36.115Z,71.71
2022-10-22T10:10:16.038Z,71.97
2022-10-22T10:12:56.608Z,70.51
2022-10-22T10:15:44.003Z,71.44
2022-10-22T10:18:38.991Z,70.59
2022-10-22T10:21:16.226Z,70.38
2022-10-22T10:24:18.758Z,70.41
2022-10-22T10:26:54.528Z,69.88
2022-10-22T10:29:39.214Z,69.93
2022-10-22T10:32:24.677Z,69.25
2022-10-22T10:35:20.567Z,69.11
2022-10-22T10:37:54.141Z,69.30
2022-10-22T10:40:26.680Z,70.34
2022-10-22T10:43:07.298Z,69.02
2022-10-22T10:45:36.332Z,69.25
2022-10-22T10:48:25.788Z,68.37
2022-10-22T10:51:04.891Z,68.55
2022-10-22T10:53:43.113Z,67.73
2022-10-22T10:56:39.200Z,67.66
2022-10-22T10:59:14.453Z,67.65
2022-10-22T11:01:52.483Z,67.61
2022-10-22T11:04:30.589Z,67.05
2022-10-22T11:07:11.155Z,66.17
2022-10-22T11:09:50.665Z,66.66
2022-10-22T11:12:34.129Z,65.77
2022-10-22T11:15:27.974Z,65.99
2022-10-22T11:18:00.713Z,66.35
2022-10-22T11:21:11.401Z,66.06
2022-10-22T11:23:56.519Z,66.11
2022-10-22T11:26:25.934Z,66.35
2022-10-22T11:28:53.759Z,66.13
2022-10-22T11:31:23.032Z,66.10
2022-10-22T11:34:05.012Z,66.30
2022-10-22T11:36:38.491Z,65.85
2022-10-22T11:39:05.048Z,66.09
2022-10-22T11:41:36.222Z,65.95
2022-10-22T11:44:22.553Z,65.41
2022-10-22T11:46:58.534Z,64.96
2022-10-22T11:49:43.160Z,65.41
2022-10-22T11:52:35.523Z,65.38
2022-10-22T11:55:03.719Z,65.24
2022-10-22T11:57:38.454Z,64.97
2022-10-22T12:00:41.304Z,64.59
2022-10-22T12:03:18.444Z,64.12
2022-10-22T12:05:46.672Z,63.11
2022-10-22T12:08:20.737Z,63.22
2022-10-22T12:11:19.422Z,62.05
2022-10-22T12:14:10.740Z,62.09
2022-10-22T12:16:58.083Z,62.37
2022-10-22T12:19:27.537Z,62.22
2022-10-22T12:21:57.765Z,61.90
2022-10-22T12:24:26.080Z,61.44
2022-10-22T12:26:52.787Z,62.25
2022-10-22T12:29:23.583Z,61.38
2022-10-22T12:31:50.161Z,60.81
2022-10-22T12:34:24.013Z,58.58
2022-10-22T12:36:53.602Z,58.38
2022-10-22T12:39:25.022Z,56.20
2022-10-22T12:41:53.551Z,55.94
2022-10-22T12:44:19.988Z,56.00
2022-10-22T12:46:51.780Z,56.81
2022-10-22T12:49:23.497Z,58.14
2022-10-22T12:51:50.120Z,58.10
2022-10-22T12:54:25.839Z,57.70
2022-10-22T12:56:53.480Z,56.30
2022-10-22T12:59:30.606Z,54.97
2022-10-22T13:01:57.144Z,55.26
2022-10-22T13:04:26.768Z,55.76
2022-10-22T13:07:16.947Z,56.35
2022-10-22T13:10:01.170Z,57.13
2022-10-22T13:12:36.011Z,58.02
2022-10-22T13:15:33.767Z,58.70
2022-10-22T13:18:22.898Z,58.65
2022-10-22T13:21:03.046Z,58.76
2022-10-22T13:23:32.234Z,58.27
2022-10-22T13:26:19.011Z,58.57
2022-10-22T13:28:54.610Z,57.60
2022-10-22T13:31:27.182Z,58.33
2022-10-22T13:33:58.149Z,58.76
2022-10-22T13:36:25.087Z,57.44
2022-10-22T13:38:51.905Z,58.17
2022-10-22T13:41:27.555Z,57.70
2022-10-22T13:43:55.459Z,57.97
2022-10-22T13:46:23.646Z,59.21
2022-10-22T13:48:52.801Z,59.50
2022-10-22T13:51:24.804Z,59.04
2022-10-22T13:53:53.589Z,58.27
2022-10-22T13:56:21.711Z,57.86
2022-10-22T13:58:48.738Z,57.56
2022-10-22T14:01:26.227Z,57.70
2022-10-22T14:03:57.944Z,58.93
2022-10-22T14:06:28.749Z,58.90
2022-10-22T14:09:00.040Z,58.49
2022-10-22T14:11:27.290Z,58.73
2022-10-22T14:13:54.422Z,58.81
2022-10-22T14:16:24.048Z,59.12
2022-10-22T14:18:51.444Z,59.79
2022-10-22T14:21:19.023Z,59.57
2022-10-22T14:23:47.839Z,60.03
2022-10-22T14:26:30.178Z,59.76
2022-10-22T14:29:09.432Z,59.64
2022-10-22T14:31:38.134Z,59.43
2022-10-22T14:34:04.626Z,59.59
2022-10-22T14:36:31.116Z,59.73
2022-10-22T14:38:57.689Z,60.39
2022-10-22T14:41:27.978Z,59.37
2022-10-22T14:43:59.640Z,58.86
2022-10-22T14:46:26.268Z,58.46
2022-10-22T14:48:52.850Z,57.97
2022-10-22T14:51:21.326Z,57.22
2022-10-22T14:53:48.161Z,57.00
2022-10-22T14:56:17.766Z,57.34
2022-10-22T14:58:45.519Z,57.04
2022-10-22T15:01:12.116Z,57.38
2022-10-22T15:03:38.885Z,58.01
2022-10-22T15:06:05.916Z,57.54
2022-10-22T15:08:33.116Z,57.96
2022-10-22T15:11:00.636Z,58.72
2022-10-22T15:13:29.159Z,58.55
2022-10-22T15:15:57.012Z,58.66
2022-10-22T15:18:23.979Z,58.24
2022-10-22T15:21:02.889Z,59.07
2022-10-22T15:23:29.527Z,59.13
2022-10-22T15:25:56.559Z,59.80
2022-10-22T15:28:24.149Z,59.72
2022-10-22T15:30:56.738Z,59.82
2022-10-22T15:33:23.954Z,60.56
2022-10-22T15:35:50.693Z,60.46
2022-10-22T15:38:17.855Z,60.79
2022-10-22T15:40:44.676Z,61.18
2022-10-22T15:43:11.983Z,61.47
2022-10-22T15:45:39.492Z,62.38
2022-10-22T15:48:06.173Z,61.92
2022-10-22T15:50:36.971Z,62.41
2022-10-22T15:53:03.620Z,62.86
2022-10-22T15:55:30.499Z,63.21
2022-10-22T15:57:59.225Z,63.13
2022-10-22T16:00:28.209Z,63.58
2022-10-22T16:02:55.083Z,63.80
2022-10-22T16:05:21.457Z,63.81
2022-10-22T16:07:47.867Z,64.74
2022-10-22T16:10:14.256Z,64.94
2022-10-22T16:12:41.497Z,64.84
2022-10-22T16:15:09.140Z,66.02
2022-10-22T16:17:35.923Z,65.78
2022-10-22T16:20:02.352Z,67.01
2022-10-22T16:22:34.924Z,67.58
2022-10-22T16:25:01.614Z,67.89
2022-10-22T16:27:28.019Z,68.11
2022-10-22T16:29:57.478Z,68.88
2022-10-22T16:32:23.832Z,68.95
2022-10-22T16:34:50.130Z,69.39
2022-10-22T16:37:16.451Z,69.45
2022-10-22T16:39:42.746Z,69.08
2022-10-22T16:42:09.053Z,69.55
2022-10-22T16:44:35.365Z,70.09
2022-10-22T16:47:01.713Z,70.25
2022-10-22T16:49:28.034Z,70.34
2022-10-22T16:51:54.353Z,70.81
2022-10-22T16:54:21.686Z,70.76
2022-10-22T16:56:48.061Z,70.56
2022-10-22T16:59:14.624Z,71.05
2022-10-22T17:01:41.607Z,71.08
2022-10-22T17:04:08.299Z,71.24
2022-10-22T17:06:34.657Z,71.52
2022-10-22T17:09:01.099Z,71.95
2022-10-22T17:11:30.144Z,71.46
2022-10-22T17:13:56.789Z,71.25
2022-10-22T17:16:24.920Z,71.12
2022-10-22T17:18:53.716Z,71.25
2022-10-22T17:21:21.125Z,71.28
2022-10-22T17:23:48.078Z,71.42
2022-10-22T17:26:20.811Z,71.16
2022-10-22T17:28:47.919Z,71.32
2022-10-22T17:31:20.438Z,71.59
2022-10-22T17:33:48.618Z,71.75
2022-10-22T17:36:16.435Z,71.94
2022-10-22T17:38:43.385Z,71.89
2022-10-22T17:41:17.653Z,72.11
2022-10-22T17:46:24.451Z,71.93
2022-10-22T17:48:52.480Z,71.81
2022-10-22T17:51:19.711Z,71.76
2022-10-22T17:53:46.494Z,71.89
2022-10-22T17:56:15.116Z,71.55
2022-10-22T17:58:41.819Z,70.95
2022-10-22T18:01:25.966Z,70.73
2022-10-22T18:03:53.993Z,70.44
2022-10-22T18:06:21.155Z,70.56
2022-10-22T18:08:47.585Z,70.25
2022-10-22T18:11:17.359Z,70.68
2022-10-22T18:13:43.736Z,70.87
2022-10-22T18:16:10.306Z,70.48
2022-10-22T18:18:36.666Z,70.82
2022-10-22T18:21:03.749Z,70.58
2022-10-22T18:23:30.050Z,70.74
2022-10-22T18:25:56.372Z,70.72
2022-10-22T18:28:22.713Z,70.82
2022-10-22T18:30:49.085Z,70.49
2022-10-22T18:33:18.208Z,70.82
2022-10-22T18:35:46.064Z,71.56
2022-10-22T18:38:12.486Z,71.70
2022-10-22T18:40:45.940Z,71.40
2022-10-22T18:43:12.638Z,71.94
2022-10-22T18:45:46.775Z,71.79
2022-10-22T18:48:15.769Z,72.18
2022-10-22T18:50:42.835Z,71.90
2022-10-22T18:53:10.142Z,72.09
2022-10-22T18:55:39.594Z,72.61
2022-10-22T18:58:06.402Z,72.30
2022-10-22T19:00:35.112Z,72.12
2022-10-22T19:03:03.069Z,72.44
2022-10-22T19:05:29.361Z,72.36
2022-10-22T19:07:55.674Z,73.28
2022-10-22T19:10:21.977Z,72.96
2022-10-22T19:12:48.311Z,72.69
2022-10-22T19:15:14.683Z,73.31
2022-10-22T19:17:41.280Z,73.70
2022-10-22T19:20:08.413Z,73.31
2022-10-22T19:22:34.731Z,73.44
2022-10-22T19:25:01.039Z,73.30
2022-10-22T19:27:27.364Z,73.51
2022-10-22T19:29:53.665Z,73.95
2022-10-22T19:32:20.147Z,74.12
2022-10-22T19:34:47.072Z,74.03
2022-10-22T19:37:13.466Z,73.76
2022-10-22T19:39:39.803Z,74.09
2022-10-22T19:42:06.212Z,73.93
2022-10-22T19:44:32.563Z,73.67
2022-10-22T19:46:58.878Z,73.61
2022-10-22T19:49:25.343Z,73.88
2022-10-22T19:51:51.719Z,73.95
2022-10-22T19:54:19.505Z,73.71
2022-10-22T19:56:47.441Z,73.85
2022-10-22T19:59:14.847Z,73.77
2022-10-22T20:01:41.297Z,74.13
2022-10-22T20:04:07.705Z,74.37
2022-10-22T20:06:34.062Z,73.90
2022-10-22T20:09:00.416Z,74.38
2022-10-22T20:11:29.429Z,74.80
2022-10-22T20:13:57.079Z,75.00
2022-10-22T20:16:28.282Z,75.01
2022-10-22T20:18:54.614Z,75.00
2022-10-22T20:21:21.841Z,74.93
2022-10-22T20:23:52.607Z,74.95
2022-10-22T20:26:20.159Z,75.08
2022-10-22T20:28:46.659Z,74.89
2022-10-22T20:31:15.882Z,75.15
2022-10-22T20:33:42.772Z,75.25
2022-10-22T20:36:20.775Z,75.29
2022-10-22T20:38:48.153Z,75.32
2022-10-22T20:41:17.971Z,75.52
2022-10-22T20:43:48.298Z,75.30
2022-10-22T20:46:19.207Z,75.33
2022-10-22T20:48:46.110Z,75.46
2022-10-22T20:51:13.144Z,75.49
2022-10-22T20:53:39.451Z,75.50
2022-10-22T20:56:06.816Z,75.55
2022-10-22T20:58:33.377Z,75.78
2022-10-22T21:01:05.191Z,76.20
2022-10-22T21:03:31.501Z,76.09
2022-10-22T21:05:57.809Z,76.13
2022-10-22T21:08:24.109Z,76.02
2022-10-22T21:10:50.391Z,76.37
2022-10-22T21:13:17.079Z,76.55
2022-10-22T21:15:43.412Z,76.79
2022-10-22T21:18:09.712Z,77.15
2022-10-22T21:20:38.312Z,77.10
2022-10-22T21:23:04.685Z,77.38
2022-10-22T21:25:31.286Z,77.21
2022-10-22T21:27:57.792Z,76.95
2022-10-22T21:30:24.177Z,76.68
2022-10-22T21:32:51.647Z,76.69
2022-10-22T21:35:18.124Z,76.91
2022-10-22T21:37:44.617Z,77.14
2022-10-22T21:40:11.653Z,77.32
2022-10-22T21:42:37.968Z,77.71
2022-10-22T21:45:07.929Z,77.38
2022-10-22T21:47:36.706Z,77.44
2022-10-22T21:50:03.291Z,77.64
2022-10-22T21:52:29.619Z,77.51
2022-10-22T21:54:55.954Z,77.38
2022-10-22T21:57:22.300Z,77.42
2022-10-22T21:59:48.642Z,77.23
2022-10-22T22:02:14.998Z,77.24
2022-10-22T22:04:41.349Z,77.39
2022-10-22T22:07:07.729Z,77.32
2022-10-22T22:09:34.109Z,77.07
2022-10-22T22:12:00.461Z,76.93
2022-10-22T22:14:26.751Z,77.50
2022-10-22T22:16:53.052Z,77.38
2022-10-22T22:19:19.435Z,77.22
2022-10-22T22:21:45.769Z,77.50
2022-10-22T22:24:13.144Z,77.44
2022-10-22T22:26:40.289Z,77.73
2022-10-22T22:29:06.637Z,77.80
2022-10-22T22:31:35.211Z,77.71
2022-10-22T22:34:07.002Z,77.62
2022-10-22T22:36:39.605Z,77.64
2022-10-22T22:39:08.253Z,77.68
2022-10-22T22:41:35.034Z,78.08
2022-10-22T22:44:01.685Z,78.18
2022-10-22T22:46:28.628Z,78.24
2022-10-22T22:48:54.979Z,78.05
2022-10-22T22:51:21.512Z,78.24
2022-10-22T22:53:48.055Z,78.50
2022-10-22T22:56:22.905Z,78.49
2022-10-22T22:58:49.671Z,78.47
2022-10-22T23:01:18.933Z,78.48
2022-10-22T23:03:48.761Z,78.23
2022-10-22T23:06:15.799Z,78.27
2022-10-22T23:08:42.228Z,78.19
2022-10-22T23:11:12.465Z,77.93
2022-10-22T23:13:40.293Z,78.01
2022-10-22T23:16:08.329Z,78.32
2022-10-22T23:18:35.429Z,78.37
2022-10-22T23:21:06.473Z,78.58
2022-10-22T23:23:34.163Z,78.36
2022-10-22T23:26:01.404Z,78.38
2022-10-22T23:28:28.158Z,78.59
2022-10-22T23:30:54.552Z,78.29
2022-10-22T23:33:20.995Z,78.37
2022-10-22T23:35:47.661Z,78.17
2022-10-22T23:38:13.988Z,78.02
2022-10-22T23:40:40.693Z,78.25
2022-10-22T23:43:07.059Z,78.73
2022-10-22T23:45:34.502Z,78.59
2022-10-22T23:48:00.937Z,78.48
2022-10-22T23:50:27.327Z,78.40
2022-10-22T23:52:53.656Z,78.34
2022-10-22T23:55:20.030Z,78.86
2022-10-22T23:57:46.478Z,78.78
